sensor_id;sensor_type;location;lat;lon;timestamp;temperature;humidity
55329;DHT22;41205;44.264;19.884;2023-07-31T00:02:00;538.40;2406.40
55329;DHT22;41205;44.264;19.884;2023-07-31T00:04:26;538.40;2406.40
55329;DHT22;41205;44.264;19.884;2023-07-31T00:06:52;538.40;2406.40
55329;DHT22;41205;44.264;19.884;2023-07-31T00:09:17;538.50;2406.40
55329;DHT22;41205;44.264;19.884;2023-07-31T00:11:43;538.40;2406.40
55329;DHT22;41205;44.264;19.884;2023-07-31T00:14:09;538.40;2406.40
55329;DHT22;41205;44.264;19.884;2023-07-31T00:16:35;538.40;2406.40
55329;DHT22;41205;44.264;19.884;2023-07-31T00:19:01;538.30;2406.40
55329;DHT22;41205;44.264;19.884;2023-07-31T00:21:26;538.20;2406.40
55329;DHT22;41205;44.264;19.884;2023-07-31T00:27:14;538.00;2406.40
55329;DHT22;41205;44.264;19.884;2023-07-31T00:29:40;538.00;2252.80
55329;DHT22;41205;44.264;19.884;2023-07-31T00:32:06;538.00;2406.40
55329;DHT22;41205;44.264;19.884;2023-07-31T00:34:32;538.00;2406.40
55329;DHT22;41205;44.264;19.884;2023-07-31T00:36:58;538.00;2406.40
55329;DHT22;41205;44.264;19.884;2023-07-31T00:39:24;538.00;2406.40
55329;DHT22;41205;44.264;19.884;2023-07-31T00:41:49;538.00;2406.40
55329;DHT22;41205;44.264;19.884;2023-07-31T00:44:15;538.00;2406.40
55329;DHT22;41205;44.264;19.884;2023-07-31T00:46:41;538.00;2406.40
55329;DHT22;41205;44.264;19.884;2023-07-31T00:49:07;537.90;2124.80
55329;DHT22;41205;44.264;19.884;2023-07-31T00:51:33;537.90;2406.40
55329;DHT22;41205;44.264;19.884;2023-07-31T00:54:00;537.90;2406.40
55329;DHT22;41205;44.264;19.884;2023-07-31T00:56:26;537.90;2406.40
55329;DHT22;41205;44.264;19.884;2023-07-31T00:58:53;537.90;2150.40
55329;DHT22;41205;44.264;19.884;2023-07-31T01:01:19;537.80;2406.40
55329;DHT22;41205;44.264;19.884;2023-07-31T01:03:44;537.80;2406.40
55329;DHT22;41205;44.264;19.884;2023-07-31T01:11:22;537.70;2406.40
55329;DHT22;41205;44.264;19.884;2023-07-31T01:13:49;537.80;2329.60
55329;DHT22;41205;44.264;19.884;2023-07-31T01:16:15;537.80;2406.40
55329;DHT22;41205;44.264;19.884;2023-07-31T01:18:41;537.80;2150.40
55329;DHT22;41205;44.264;19.884;2023-07-31T01:26:44;537.80;2406.40
55329;DHT22;41205;44.264;19.884;2023-07-31T01:31:42;537.80;2406.40
55329;DHT22;41205;44.264;19.884;2023-07-31T01:34:10;537.80;2406.40
55329;DHT22;41205;44.264;19.884;2023-07-31T01:36:37;537.80;2406.40
55329;DHT22;41205;44.264;19.884;2023-07-31T01:39:03;537.90;2406.40
55329;DHT22;41205;44.264;19.884;2023-07-31T01:41:29;537.80;2406.40
55329;DHT22;41205;44.264;19.884;2023-07-31T01:43:55;537.80;2406.40
55329;DHT22;41205;44.264;19.884;2023-07-31T01:46:20;537.70;2406.40
55329;DHT22;41205;44.264;19.884;2023-07-31T01:48:46;537.70;2406.40
55329;DHT22;41205;44.264;19.884;2023-07-31T01:51:12;537.70;2406.40
55329;DHT22;41205;44.264;19.884;2023-07-31T01:53:37;537.70;2406.40
55329;DHT22;41205;44.264;19.884;2023-07-31T01:56:03;537.60;2406.40
55329;DHT22;41205;44.264;19.884;2023-07-31T01:58:29;512.90;2048.00
55329;DHT22;41205;44.264;19.884;2023-07-31T02:00:55;512.90;2252.80
55329;DHT22;41205;44.264;19.884;2023-07-31T02:03:20;537.60;2406.40
55329;DHT22;41205;44.264;19.884;2023-07-31T02:05:49;537.60;2406.40
55329;DHT22;41205;44.264;19.884;2023-07-31T02:08:16;512.90;2380.80
55329;DHT22;41205;44.264;19.884;2023-07-31T02:10:42;512.90;2278.40
55329;DHT22;41205;44.264;19.884;2023-07-31T02:13:07;512.90;2380.80
55329;DHT22;41205;44.264;19.884;2023-07-31T02:15:34;512.90;2380.80
55329;DHT22;41205;44.264;19.884;2023-07-31T02:17:59;512.90;2380.80
55329;DHT22;41205;44.264;19.884;2023-07-31T02:20:25;512.90;2380.80
55329;DHT22;41205;44.264;19.884;2023-07-31T02:22:51;512.80;2380.80
55329;DHT22;41205;44.264;19.884;2023-07-31T02:25:17;512.80;2380.80
55329;DHT22;41205;44.264;19.884;2023-07-31T02:27:43;512.80;2380.80
55329;DHT22;41205;44.264;19.884;2023-07-31T02:30:09;512.70;2380.80
55329;DHT22;41205;44.264;19.884;2023-07-31T02:32:35;512.70;2380.80
55329;DHT22;41205;44.264;19.884;2023-07-31T02:35:00;512.70;2380.80
55329;DHT22;41205;44.264;19.884;2023-07-31T02:37:26;512.70;2380.80
55329;DHT22;41205;44.264;19.884;2023-07-31T02:39:54;512.70;2380.80
55329;DHT22;41205;44.264;19.884;2023-07-31T02:42:19;512.70;2380.80
55329;DHT22;41205;44.264;19.884;2023-07-31T02:44:45;512.70;2380.80
55329;DHT22;41205;44.264;19.884;2023-07-31T02:47:11;512.70;2380.80
55329;DHT22;41205;44.264;19.884;2023-07-31T02:49:36;512.70;2380.80
55329;DHT22;41205;44.264;19.884;2023-07-31T02:52:02;512.70;2380.80
55329;DHT22;41205;44.264;19.884;2023-07-31T02:54:28;512.70;2380.80
55329;DHT22;41205;44.264;19.884;2023-07-31T02:56:54;512.70;2380.80
55329;DHT22;41205;44.264;19.884;2023-07-31T02:59:20;512.70;2380.80
55329;DHT22;41205;44.264;19.884;2023-07-31T03:01:46;512.60;2380.80
55329;DHT22;41205;44.264;19.884;2023-07-31T03:04:11;512.60;2380.80
55329;DHT22;41205;44.264;19.884;2023-07-31T03:06:37;512.60;2380.80
55329;DHT22;41205;44.264;19.884;2023-07-31T03:09:03;512.60;2380.80
55329;DHT22;41205;44.264;19.884;2023-07-31T03:11:28;512.70;2380.80
55329;DHT22;41205;44.264;19.884;2023-07-31T03:13:54;512.70;2380.80
55329;DHT22;41205;44.264;19.884;2023-07-31T03:16:20;512.70;2380.80
55329;DHT22;41205;44.264;19.884;2023-07-31T03:18:45;512.70;2380.80
55329;DHT22;41205;44.264;19.884;2023-07-31T03:21:12;512.70;2329.60
55329;DHT22;41205;44.264;19.884;2023-07-31T03:23:38;512.70;2380.80
55329;DHT22;41205;44.264;19.884;2023-07-31T03:26:07;512.80;2278.40
55329;DHT22;41205;44.264;19.884;2023-07-31T03:28:33;512.80;2380.80
55329;DHT22;41205;44.264;19.884;2023-07-31T03:30:58;512.80;2380.80
55329;DHT22;41205;44.264;19.884;2023-07-31T03:33:25;512.90;2124.80
55329;DHT22;41205;44.264;19.884;2023-07-31T03:35:51;512.90;2380.80
55329;DHT22;41205;44.264;19.884;2023-07-31T03:38:16;537.60;2406.40
55329;DHT22;41205;44.264;19.884;2023-07-31T03:40:42;537.60;2406.40
55329;DHT22;41205;44.264;19.884;2023-07-31T03:43:08;537.60;2406.40
55329;DHT22;41205;44.264;19.884;2023-07-31T03:45:33;537.70;2406.40
55329;DHT22;41205;44.264;19.884;2023-07-31T03:47:59;537.80;2406.40
55329;DHT22;41205;44.264;19.884;2023-07-31T03:50:25;537.80;2406.40
55329;DHT22;41205;44.264;19.884;2023-07-31T03:52:51;537.70;2406.40
55329;DHT22;41205;44.264;19.884;2023-07-31T03:55:17;537.80;2406.40
55329;DHT22;41205;44.264;19.884;2023-07-31T03:57:43;537.90;2406.40
55329;DHT22;41205;44.264;19.884;2023-07-31T04:00:09;537.90;2406.40
55329;DHT22;41205;44.264;19.884;2023-07-31T04:02:35;538.00;2406.40
55329;DHT22;41205;44.264;19.884;2023-07-31T04:05:01;538.20;2406.40
55329;DHT22;41205;44.264;19.884;2023-07-31T04:07:27;538.20;2406.40
55329;DHT22;41205;44.264;19.884;2023-07-31T04:09:52;538.30;2406.40
55329;DHT22;41205;44.264;19.884;2023-07-31T04:12:18;538.40;2406.40
55329;DHT22;41205;44.264;19.884;2023-07-31T04:14:43;538.50;2406.40
55329;DHT22;41205;44.264;19.884;2023-07-31T04:17:09;538.50;2406.40
55329;DHT22;41205;44.264;19.884;2023-07-31T04:19:35;538.50;2406.40
55329;DHT22;41205;44.264;19.884;2023-07-31T04:22:00;563.20;2432.00
55329;DHT22;41205;44.264;19.884;2023-07-31T04:24:26;563.20;2432.00
55329;DHT22;41205;44.264;19.884;2023-07-31T04:26:53;563.20;2432.00
55329;DHT22;41205;44.264;19.884;2023-07-31T04:29:19;563.20;2432.00
55329;DHT22;41205;44.264;19.884;2023-07-31T04:31:45;563.30;2432.00
55329;DHT22;41205;44.264;19.884;2023-07-31T04:34:10;563.30;2432.00
55329;DHT22;41205;44.264;19.884;2023-07-31T04:36:37;563.30;2432.00
55329;DHT22;41205;44.264;19.884;2023-07-31T04:39:03;563.30;2432.00
55329;DHT22;41205;44.264;19.884;2023-07-31T04:41:28;563.30;2432.00
55329;DHT22;41205;44.264;19.884;2023-07-31T04:43:54;563.40;2432.00
55329;DHT22;41205;44.264;19.884;2023-07-31T04:46:20;563.50;2432.00
55329;DHT22;41205;44.264;19.884;2023-07-31T04:48:45;563.60;2432.00
55329;DHT22;41205;44.264;19.884;2023-07-31T04:51:11;563.60;2432.00
55329;DHT22;41205;44.264;19.884;2023-07-31T04:53:37;563.60;2432.00
55329;DHT22;41205;44.264;19.884;2023-07-31T04:56:03;563.80;2432.00
55329;DHT22;41205;44.264;19.884;2023-07-31T04:58:28;588.90;2432.00
55329;DHT22;41205;44.264;19.884;2023-07-31T05:00:54;691.30;2432.00
55329;DHT22;41205;44.264;19.884;2023-07-31T05:03:20;768.00;2432.00
55329;DHT22;41205;44.264;19.884;2023-07-31T05:05:45;819.40;2176.00
55329;DHT22;41205;44.264;19.884;2023-07-31T05:08:11;845.70;1996.80
55329;DHT22;41205;44.264;19.884;2023-07-31T05:10:37;871.30;1868.80
55329;DHT22;41205;44.264;19.884;2023-07-31T05:13:03;896.90;1792.00
55329;DHT22;41205;44.264;19.884;2023-07-31T05:15:29;922.20;1715.20
55329;DHT22;41205;44.264;19.884;2023-07-31T05:17:55;922.30;1715.20
55329;DHT22;41205;44.264;19.884;2023-07-31T05:20:21;845.20;1920.00
55329;DHT22;41205;44.264;19.884;2023-07-31T05:22:47;768.60;2048.00
55329;DHT22;41205;44.264;19.884;2023-07-31T05:25:12;742.70;2201.60
55329;DHT22;41205;44.264;19.884;2023-07-31T05:27:38;717.00;2304.00
55329;DHT22;41205;44.264;19.884;2023-07-31T05:30:04;691.50;2380.80
55329;DHT22;41205;44.264;19.884;2023-07-31T05:32:30;666.00;2432.00
55329;DHT22;41205;44.264;19.884;2023-07-31T05:34:56;640.90;2432.00
55329;DHT22;41205;44.264;19.884;2023-07-31T05:37:22;640.50;2432.00
55329;DHT22;41205;44.264;19.884;2023-07-31T05:39:48;640.20;2432.00
55329;DHT22;41205;44.264;19.884;2023-07-31T05:42:14;640.30;2432.00
55329;DHT22;41205;44.264;19.884;2023-07-31T05:44:39;640.60;2432.00
55329;DHT22;41205;44.264;19.884;2023-07-31T05:47:05;640.50;2432.00
55329;DHT22;41205;44.264;19.884;2023-07-31T05:49:31;640.50;2432.00
55329;DHT22;41205;44.264;19.884;2023-07-31T05:51:56;640.40;2432.00
55329;DHT22;41205;44.264;19.884;2023-07-31T05:54:22;640.50;2432.00
55329;DHT22;41205;44.264;19.884;2023-07-31T05:56:48;665.70;2432.00
55329;DHT22;41205;44.264;19.884;2023-07-31T05:59:14;665.90;2432.00
55329;DHT22;41205;44.264;19.884;2023-07-31T06:01:39;665.90;2432.00
55329;DHT22;41205;44.264;19.884;2023-07-31T06:04:05;717.60;2432.00
55329;DHT22;41205;44.264;19.884;2023-07-31T06:06:31;845.30;2099.20
55329;DHT22;41205;44.264;19.884;2023-07-31T06:08:57;921.80;1843.20
55329;DHT22;41205;44.264;19.884;2023-07-31T06:11:22;973.40;1638.40
55329;DHT22;41205;44.264;19.884;2023-07-31T06:13:48;999.30;1561.60
55329;DHT22;41205;44.264;19.884;2023-07-31T06:16:15;1024.70;1484.80
55329;DHT22;41205;44.264;19.884;2023-07-31T06:18:42;1050.20;1433.60
55329;DHT22;41205;44.264;19.884;2023-07-31T06:21:09;1075.40;1408.00
55329;DHT22;41205;44.264;19.884;2023-07-31T06:23:35;1075.50;1382.40
55329;DHT22;41205;44.264;19.884;2023-07-31T06:26:01;1075.80;1356.80
55329;DHT22;41205;44.264;19.884;2023-07-31T06:28:31;1076.10;1331.20
55329;DHT22;41205;44.264;19.884;2023-07-31T06:31:00;1101.00;1356.80
55329;DHT22;41205;44.264;19.884;2023-07-31T06:33:26;1101.00;1331.20
55329;DHT22;41205;44.264;19.884;2023-07-31T06:35:52;1101.10;1305.60
55329;DHT22;41205;44.264;19.884;2023-07-31T06:38:22;1101.60;1280.00
55329;DHT22;41205;44.264;19.884;2023-07-31T06:40:49;1101.60;1305.60
55329;DHT22;41205;44.264;19.884;2023-07-31T06:43:15;1127.00;1254.40
55329;DHT22;41205;44.264;19.884;2023-07-31T06:45:40;1126.90;1254.40
55329;DHT22;41205;44.264;19.884;2023-07-31T06:48:06;1050.50;1356.80
55329;DHT22;41205;44.264;19.884;2023-07-31T06:50:32;1075.80;1305.60
55329;DHT22;41205;44.264;19.884;2023-07-31T06:52:58;1126.40;1280.00
55329;DHT22;41205;44.264;19.884;2023-07-31T06:55:24;999.00;1408.00
55329;DHT22;41205;44.264;19.884;2023-07-31T06:57:52;948.00;1484.80
55329;DHT22;41205;44.264;19.884;2023-07-31T07:00:19;896.00;1587.20
55329;DHT22;41205;44.264;19.884;2023-07-31T07:02:45;845.40;1715.20
55329;DHT22;41205;44.264;19.884;2023-07-31T07:05:14;871.10;1638.40
55329;DHT22;41205;44.264;19.884;2023-07-31T07:07:40;921.90;1587.20
55329;DHT22;41205;44.264;19.884;2023-07-31T07:10:07;896.80;1587.20
55329;DHT22;41205;44.264;19.884;2023-07-31T07:12:33;896.30;1612.80
55329;DHT22;41205;44.264;19.884;2023-07-31T07:14:59;922.40;1561.60
55329;DHT22;41205;44.264;19.884;2023-07-31T07:17:26;871.00;1638.40
55329;DHT22;41205;44.264;19.884;2023-07-31T07:19:52;870.50;1664.00
55329;DHT22;41205;44.264;19.884;2023-07-31T07:22:18;870.50;1664.00
55329;DHT22;41205;44.264;19.884;2023-07-31T07:24:43;845.70;1664.00
55329;DHT22;41205;44.264;19.884;2023-07-31T07:27:09;845.50;1715.20
55329;DHT22;41205;44.264;19.884;2023-07-31T07:29:35;845.40;1715.20
55329;DHT22;41205;44.264;19.884;2023-07-31T07:32:01;819.80;1766.40
55329;DHT22;41205;44.264;19.884;2023-07-31T07:34:27;794.20;1868.80
55329;DHT22;41205;44.264;19.884;2023-07-31T07:36:54;819.70;1817.60
55329;DHT22;41205;44.264;19.884;2023-07-31T07:39:19;845.70;1715.20
55329;DHT22;41205;44.264;19.884;2023-07-31T07:41:46;896.20;1638.40
55329;DHT22;41205;44.264;19.884;2023-07-31T07:44:12;922.00;1638.40
55329;DHT22;41205;44.264;19.884;2023-07-31T07:46:38;922.00;1612.80
55329;DHT22;41205;44.264;19.884;2023-07-31T07:49:04;896.80;1612.80
55329;DHT22;41205;44.264;19.884;2023-07-31T07:51:30;845.50;1766.40
55329;DHT22;41205;44.264;19.884;2023-07-31T07:53:59;819.30;1843.20
55329;DHT22;41205;44.264;19.884;2023-07-31T07:56:26;794.00;1894.40
55329;DHT22;41205;44.264;19.884;2023-07-31T07:58:53;768.50;1920.00
55329;DHT22;41205;44.264;19.884;2023-07-31T08:01:18;768.00;1945.60
55329;DHT22;41205;44.264;19.884;2023-07-31T08:03:44;768.50;1920.00
55329;DHT22;41205;44.264;19.884;2023-07-31T08:06:10;768.80;1894.40
55329;DHT22;41205;44.264;19.884;2023-07-31T08:08:36;768.90;1894.40
55329;DHT22;41205;44.264;19.884;2023-07-31T08:11:02;794.10;1894.40
55329;DHT22;41205;44.264;19.884;2023-07-31T08:13:28;794.20;1868.80
55329;DHT22;41205;44.264;19.884;2023-07-31T08:15:54;768.80;1894.40
55329;DHT22;41205;44.264;19.884;2023-07-31T08:18:20;768.10;1945.60
55329;DHT22;41205;44.264;19.884;2023-07-31T08:20:45;743.00;1996.80
55329;DHT22;41205;44.264;19.884;2023-07-31T08:23:14;743.10;1996.80
55329;DHT22;41205;44.264;19.884;2023-07-31T08:25:40;768.70;1945.60
55329;DHT22;41205;44.264;19.884;2023-07-31T08:28:06;794.50;1868.80
55329;DHT22;41205;44.264;19.884;2023-07-31T08:30:32;819.40;1817.60
55329;DHT22;41205;44.264;19.884;2023-07-31T08:33:02;819.40;1843.20
55329;DHT22;41205;44.264;19.884;2023-07-31T08:35:28;794.20;1868.80
55329;DHT22;41205;44.264;19.884;2023-07-31T08:37:54;794.00;1920.00
55329;DHT22;41205;44.264;19.884;2023-07-31T08:40:20;794.00;1920.00
55329;DHT22;41205;44.264;19.884;2023-07-31T08:42:49;794.00;1920.00
55329;DHT22;41205;44.264;19.884;2023-07-31T08:45:16;819.50;1868.80
55329;DHT22;41205;44.264;19.884;2023-07-31T08:47:50;819.50;1817.60
55329;DHT22;41205;44.264;19.884;2023-07-31T08:50:19;794.40;1843.20
55329;DHT22;41205;44.264;19.884;2023-07-31T08:52:50;793.90;1894.40
55329;DHT22;41205;44.264;19.884;2023-07-31T08:55:17;793.70;1920.00
55329;DHT22;41205;44.264;19.884;2023-07-31T08:57:43;793.70;1894.40
55329;DHT22;41205;44.264;19.884;2023-07-31T09:00:10;793.80;1894.40
55329;DHT22;41205;44.264;19.884;2023-07-31T09:05:12;793.90;1945.60
55329;DHT22;41205;44.264;19.884;2023-07-31T09:07:38;819.20;1843.20
55329;DHT22;41205;44.264;19.884;2023-07-31T09:10:05;819.30;1843.20
55329;DHT22;41205;44.264;19.884;2023-07-31T09:12:31;819.30;1843.20
55329;DHT22;41205;44.264;19.884;2023-07-31T09:14:58;819.50;1817.60
55329;DHT22;41205;44.264;19.884;2023-07-31T09:17:33;819.80;1817.60
55329;DHT22;41205;44.264;19.884;2023-07-31T09:20:20;819.20;1817.60
55329;DHT22;41205;44.264;19.884;2023-07-31T09:22:47;819.30;1843.20
55329;DHT22;41205;44.264;19.884;2023-07-31T09:25:36;794.50;1843.20
55329;DHT22;41205;44.264;19.884;2023-07-31T09:28:04;794.20;1868.80
55329;DHT22;41205;44.264;19.884;2023-07-31T09:30:32;794.30;1868.80
55329;DHT22;41205;44.264;19.884;2023-07-31T09:33:09;794.00;1894.40
55329;DHT22;41205;44.264;19.884;2023-07-31T09:35:35;793.60;1920.00
55329;DHT22;41205;44.264;19.884;2023-07-31T09:38:05;793.80;1894.40
55329;DHT22;41205;44.264;19.884;2023-07-31T09:40:33;793.70;1894.40
55329;DHT22;41205;44.264;19.884;2023-07-31T09:43:01;768.90;1868.80
55329;DHT22;41205;44.264;19.884;2023-07-31T09:45:27;768.60;1868.80
55329;DHT22;41205;44.264;19.884;2023-07-31T09:47:54;768.60;1843.20
55329;DHT22;41205;44.264;19.884;2023-07-31T09:50:23;768.70;1817.60
55329;DHT22;41205;44.264;19.884;2023-07-31T09:52:50;768.70;1817.60
55329;DHT22;41205;44.264;19.884;2023-07-31T09:55:16;768.70;1843.20
55329;DHT22;41205;44.264;19.884;2023-07-31T09:57:45;768.10;1894.40
55329;DHT22;41205;44.264;19.884;2023-07-31T10:00:12;768.40;1843.20
55329;DHT22;41205;44.264;19.884;2023-07-31T10:02:39;768.40;1843.20
55329;DHT22;41205;44.264;19.884;2023-07-31T10:05:06;768.30;1843.20
55329;DHT22;41205;44.264;19.884;2023-07-31T10:07:39;768.40;1817.60
55329;DHT22;41205;44.264;19.884;2023-07-31T10:10:08;768.60;1792.00
55329;DHT22;41205;44.264;19.884;2023-07-31T10:12:36;768.90;1792.00
55329;DHT22;41205;44.264;19.884;2023-07-31T10:15:02;793.70;1792.00
55329;DHT22;41205;44.264;19.884;2023-07-31T10:17:30;793.80;1740.80
55329;DHT22;41205;44.264;19.884;2023-07-31T10:19:58;793.70;1766.40
55329;DHT22;41205;44.264;19.884;2023-07-31T10:22:26;768.60;1766.40
55329;DHT22;41205;44.264;19.884;2023-07-31T10:24:54;768.20;1817.60
55329;DHT22;41205;44.264;19.884;2023-07-31T10:27:20;743.00;1792.00
55329;DHT22;41205;44.264;19.884;2023-07-31T10:29:47;743.20;1766.40
55329;DHT22;41205;44.264;19.884;2023-07-31T10:32:14;743.30;1792.00
55329;DHT22;41205;44.264;19.884;2023-07-31T10:34:41;743.10;1817.60
55329;DHT22;41205;44.264;19.884;2023-07-31T10:37:28;743.00;1843.20
55329;DHT22;41205;44.264;19.884;2023-07-31T10:42:46;743.30;1792.00
55329;DHT22;41205;44.264;19.884;2023-07-31T10:45:13;743.30;1766.40
55329;DHT22;41205;44.264;19.884;2023-07-31T10:47:46;743.20;1715.20
55329;DHT22;41205;44.264;19.884;2023-07-31T10:52:48;742.70;1689.60
55329;DHT22;41205;44.264;19.884;2023-07-31T10:55:29;742.80;1766.40
55329;DHT22;41205;44.264;19.884;2023-07-31T10:57:57;742.50;1792.00
55329;DHT22;41205;44.264;19.884;2023-07-31T11:00:26;717.70;1715.20
55329;DHT22;41205;44.264;19.884;2023-07-31T11:06:00;717.70;1766.40
55329;DHT22;41205;44.264;19.884;2023-07-31T11:08:35;742.50;1766.40
55329;DHT22;41205;44.264;19.884;2023-07-31T11:11:10;742.60;1766.40
55329;DHT22;41205;44.264;19.884;2023-07-31T11:16:06;742.60;1766.40
55329;DHT22;41205;44.264;19.884;2023-07-31T11:18:32;742.70;1740.80
55329;DHT22;41205;44.264;19.884;2023-07-31T11:20:58;742.80;1740.80
55329;DHT22;41205;44.264;19.884;2023-07-31T11:23:24;742.90;1817.60
55329;DHT22;41205;44.264;19.884;2023-07-31T11:25:50;742.90;1792.00
55329;DHT22;41205;44.264;19.884;2023-07-31T11:28:17;742.80;1766.40
55329;DHT22;41205;44.264;19.884;2023-07-31T11:30:44;717.60;1689.60
55329;DHT22;41205;44.264;19.884;2023-07-31T11:33:12;717.40;1715.20
55329;DHT22;41205;44.264;19.884;2023-07-31T11:35:46;717.50;1689.60
55329;DHT22;41205;44.264;19.884;2023-07-31T11:38:32;742.50;1792.00
55329;DHT22;41205;44.264;19.884;2023-07-31T11:41:00;742.60;1766.40
55329;DHT22;41205;44.264;19.884;2023-07-31T11:43:28;742.80;1740.80
55329;DHT22;41205;44.264;19.884;2023-07-31T11:45:58;742.90;1792.00
55329;DHT22;41205;44.264;19.884;2023-07-31T11:48:31;743.00;1766.40
55329;DHT22;41205;44.264;19.884;2023-07-31T11:51:00;743.00;1740.80
55329;DHT22;41205;44.264;19.884;2023-07-31T11:56:01;743.00;1664.00
55329;DHT22;41205;44.264;19.884;2023-07-31T11:58:30;743.30;1792.00
55329;DHT22;41205;44.264;19.884;2023-07-31T12:00:57;743.10;1612.80
55329;DHT22;41205;44.264;19.884;2023-07-31T12:03:23;743.30;1715.20
55329;DHT22;41205;44.264;19.884;2023-07-31T12:05:49;768.10;1612.80
55329;DHT22;41205;44.264;19.884;2023-07-31T12:08:15;768.00;1612.80
55329;DHT22;41205;44.264;19.884;2023-07-31T12:10:41;768.10;1638.40
55329;DHT22;41205;44.264;19.884;2023-07-31T12:13:11;743.30;1664.00
55329;DHT22;41205;44.264;19.884;2023-07-31T12:15:43;743.10;1689.60
55329;DHT22;41205;44.264;19.884;2023-07-31T12:18:14;743.10;1689.60
55329;DHT22;41205;44.264;19.884;2023-07-31T12:20:48;743.10;1715.20
55329;DHT22;41205;44.264;19.884;2023-07-31T12:23:22;743.30;1689.60
55329;DHT22;41205;44.264;19.884;2023-07-31T12:26:03;743.10;1740.80
55329;DHT22;41205;44.264;19.884;2023-07-31T12:28:29;743.10;1715.20
55329;DHT22;41205;44.264;19.884;2023-07-31T12:30:59;768.00;1664.00
55329;DHT22;41205;44.264;19.884;2023-07-31T12:33:35;768.10;1638.40
55329;DHT22;41205;44.264;19.884;2023-07-31T12:36:03;768.10;1638.40
55329;DHT22;41205;44.264;19.884;2023-07-31T12:38:29;768.20;1612.80
55329;DHT22;41205;44.264;19.884;2023-07-31T12:40:55;768.00;1638.40
55329;DHT22;41205;44.264;19.884;2023-07-31T12:43:21;768.10;1638.40
55329;DHT22;41205;44.264;19.884;2023-07-31T12:45:47;768.10;1612.80
55329;DHT22;41205;44.264;19.884;2023-07-31T12:48:13;743.30;1664.00
55329;DHT22;41205;44.264;19.884;2023-07-31T12:50:39;768.10;1689.60
55329;DHT22;41205;44.264;19.884;2023-07-31T12:53:05;743.30;1664.00
55329;DHT22;41205;44.264;19.884;2023-07-31T12:55:32;743.00;1612.80
55329;DHT22;41205;44.264;19.884;2023-07-31T12:58:02;743.00;1638.40
55329;DHT22;41205;44.264;19.884;2023-07-31T13:00:28;743.10;1689.60
55329;DHT22;41205;44.264;19.884;2023-07-31T13:02:54;743.00;1664.00
55329;DHT22;41205;44.264;19.884;2023-07-31T13:05:20;743.00;1689.60
55329;DHT22;41205;44.264;19.884;2023-07-31T13:07:49;743.00;1638.40
55329;DHT22;41205;44.264;19.884;2023-07-31T13:10:15;742.80;1638.40
55329;DHT22;41205;44.264;19.884;2023-07-31T13:12:41;742.50;1689.60
55329;DHT22;41205;44.264;19.884;2023-07-31T13:15:07;742.40;1689.60
55329;DHT22;41205;44.264;19.884;2023-07-31T13:17:33;717.70;1664.00
55329;DHT22;41205;44.264;19.884;2023-07-31T13:19:59;717.70;1664.00
55329;DHT22;41205;44.264;19.884;2023-07-31T13:22:25;742.50;1689.60
55329;DHT22;41205;44.264;19.884;2023-07-31T13:24:50;742.60;1664.00
55329;DHT22;41205;44.264;19.884;2023-07-31T13:27:16;742.80;1664.00
55329;DHT22;41205;44.264;19.884;2023-07-31T13:29:44;742.80;1715.20
55329;DHT22;41205;44.264;19.884;2023-07-31T13:32:10;742.80;1689.60
55329;DHT22;41205;44.264;19.884;2023-07-31T13:34:36;742.80;1689.60
55329;DHT22;41205;44.264;19.884;2023-07-31T13:37:02;742.90;1664.00
55329;DHT22;41205;44.264;19.884;2023-07-31T13:39:27;742.80;1715.20
55329;DHT22;41205;44.264;19.884;2023-07-31T13:41:53;742.90;1689.60
55329;DHT22;41205;44.264;19.884;2023-07-31T13:44:19;742.90;1612.80
55329;DHT22;41205;44.264;19.884;2023-07-31T13:46:45;743.00;1689.60
55329;DHT22;41205;44.264;19.884;2023-07-31T13:49:10;743.00;1638.40
55329;DHT22;41205;44.264;19.884;2023-07-31T13:51:36;743.00;1664.00
55329;DHT22;41205;44.264;19.884;2023-07-31T13:54:03;743.00;1664.00
55329;DHT22;41205;44.264;19.884;2023-07-31T13:56:29;742.90;1664.00
55329;DHT22;41205;44.264;19.884;2023-07-31T13:58:54;742.90;1612.80
55329;DHT22;41205;44.264;19.884;2023-07-31T14:01:20;742.80;1664.00
55329;DHT22;41205;44.264;19.884;2023-07-31T14:03:45;742.80;1638.40
55329;DHT22;41205;44.264;19.884;2023-07-31T14:06:11;742.90;1638.40
55329;DHT22;41205;44.264;19.884;2023-07-31T14:08:37;742.90;1612.80
55329;DHT22;41205;44.264;19.884;2023-07-31T14:11:02;742.90;1638.40
55329;DHT22;41205;44.264;19.884;2023-07-31T14:13:28;742.90;1612.80
55329;DHT22;41205;44.264;19.884;2023-07-31T14:15:54;742.90;1612.80
55329;DHT22;41205;44.264;19.884;2023-07-31T14:18:19;742.80;1612.80
55329;DHT22;41205;44.264;19.884;2023-07-31T14:20:45;742.90;1664.00
55329;DHT22;41205;44.264;19.884;2023-07-31T14:23:11;742.90;1612.80
55329;DHT22;41205;44.264;19.884;2023-07-31T14:25:36;743.00;1664.00
55329;DHT22;41205;44.264;19.884;2023-07-31T14:28:02;743.00;1664.00
55329;DHT22;41205;44.264;19.884;2023-07-31T14:30:28;743.00;1638.40
55329;DHT22;41205;44.264;19.884;2023-07-31T14:32:54;743.00;1587.20
55329;DHT22;41205;44.264;19.884;2023-07-31T14:35:19;743.00;1587.20
55329;DHT22;41205;44.264;19.884;2023-07-31T14:37:58;742.80;1587.20
55329;DHT22;41205;44.264;19.884;2023-07-31T14:40:31;742.70;1587.20
55329;DHT22;41205;44.264;19.884;2023-07-31T14:43:05;742.50;1612.80
55329;DHT22;41205;44.264;19.884;2023-07-31T14:45:49;742.60;1587.20
55329;DHT22;41205;44.264;19.884;2023-07-31T14:48:22;742.80;1612.80
55329;DHT22;41205;44.264;19.884;2023-07-31T14:50:47;742.90;1612.80
55329;DHT22;41205;44.264;19.884;2023-07-31T14:53:13;742.60;1561.60
55329;DHT22;41205;44.264;19.884;2023-07-31T14:55:39;742.60;1587.20
55329;DHT22;41205;44.264;19.884;2023-07-31T14:58:04;742.40;1561.60
55329;DHT22;41205;44.264;19.884;2023-07-31T15:00:30;742.40;1561.60
55329;DHT22;41205;44.264;19.884;2023-07-31T15:02:56;742.40;1612.80
55329;DHT22;41205;44.264;19.884;2023-07-31T15:05:22;742.40;1612.80